Time;durP1;ratioP1;P1;durP2;ratioP2;P2;SDS_P1;SDS_P2;PMS_P1;PMS_P2;Temp;Humidity;BMP_temperature;BMP_pressure;BME280_temperature;BME280_humidity;BME280_pressure;Samples;Min_cycle;Max_cycle;Signal;HPM_P1;HPM_P2
2022/05/24 00:00:00;;;;;;;26.27;15.05;;;;;;;;;;4954790;29;20020;-78
2022/05/24 00:02:27;;;;;;;31.98;17.05;;;;;;;;;;4964310;28;20384;-78
2022/05/24 00:04:53;;;;;;;30.15;17.00;;;;;;;;;;4974254;28;20101;-78
2022/05/24 00:07:19;;;;;;;32.15;16.88;;;;;;;;;;4974281;28;20139;-78
2022/05/24 00:09:45;;;;;;;30.27;17.70;;;;;;;;;;4974778;28;20023;-78
2022/05/24 00:12:11;;;;;;;36.95;17.70;;;;;;;;;;4974246;28;20050;-78
2022/05/24 00:17:22;;;;;;;34.30;18.23;;;;;;;;;;4974147;28;20070;-77
2022/05/24 00:19:48;;;;;;;33.00;18.05;;;;;;;;;;4974044;28;20039;-77
2022/05/24 00:22:14;;;;;;;34.40;18.05;;;;;;;;;;4973975;28;20034;-77
2022/05/24 00:24:40;;;;;;;37.13;19.42;;;;;;;;;;4973986;28;20027;-77
2022/05/24 00:27:06;;;;;;;42.10;19.98;;;;;;;;;;4976670;28;20388;-78
2022/05/24 00:29:32;;;;;;;32.72;19.50;;;;;;;;;;4978367;28;20146;-77
2022/05/24 00:31:59;;;;;;;34.28;19.70;;;;;;;;;;4978245;28;20413;-77
2022/05/24 00:34:25;;;;;;;42.20;20.15;;;;;;;;;;4978131;28;20034;-77
2022/05/24 00:36:51;;;;;;;37.90;19.90;;;;;;;;;;4977681;28;20019;-78
2022/05/24 00:39:18;;;;;;;37.80;20.13;;;;;;;;;;4977968;28;20023;-78
2022/05/24 00:41:51;;;;;;;38.92;21.08;;;;;;;;;;4977776;28;20030;-78
2022/05/24 00:44:29;;;;;;;35.08;20.17;;;;;;;;;;4977915;28;20027;-77
2022/05/24 00:46:59;;;;;;;37.25;20.27;;;;;;;;;;4977861;28;20027;-77
2022/05/24 00:49:28;;;;;;;33.83;19.98;;;;;;;;;;4977594;28;20047;-77
2022/05/24 00:52:06;;;;;;;36.35;20.08;;;;;;;;;;4977635;28;20047;-77
2022/05/24 00:54:32;;;;;;;36.22;19.85;;;;;;;;;;4977572;28;20367;-77
2022/05/24 00:57:02;;;;;;;32.63;19.25;;;;;;;;;;4977773;28;20018;-77
2022/05/24 00:59:31;;;;;;;39.63;21.02;;;;;;;;;;4977553;28;20110;-77
2022/05/24 01:01:58;;;;;;;37.40;20.38;;;;;;;;;;4977368;28;20034;-77
2022/05/24 01:04:25;;;;;;;39.17;21.15;;;;;;;;;;4977319;28;20335;-76
2022/05/24 01:06:51;;;;;;;40.33;21.77;;;;;;;;;;4977689;28;20114;-77
2022/05/24 01:09:22;;;;;;;39.42;20.80;;;;;;;;;;4977546;28;20441;-77
2022/05/24 01:11:50;;;;;;;37.30;20.47;;;;;;;;;;4977402;28;20412;-77
2022/05/24 01:14:17;;;;;;;35.45;20.92;;;;;;;;;;4977193;28;20066;-77
2022/05/24 01:16:43;;;;;;;36.85;19.92;;;;;;;;;;4977072;28;20362;-77
2022/05/24 01:19:14;;;;;;;32.65;18.92;;;;;;;;;;4976942;28;20472;-78
2022/05/24 01:21:40;;;;;;;38.63;20.15;;;;;;;;;;4960535;28;20035;-77
2022/05/24 01:24:10;;;;;;;36.88;19.83;;;;;;;;;;4957453;29;20032;-77
2022/05/24 01:26:39;;;;;;;35.33;18.50;;;;;;;;;;4957492;29;20031;-77
2022/05/24 01:29:06;;;;;;;34.13;17.80;;;;;;;;;;4957465;29;20031;-77
2022/05/24 01:37:08;;;;;;;26.77;15.25;;;;;;;;;;4957520;28;20113;-76
2022/05/24 01:39:34;;;;;;;33.20;13.88;;;;;;;;;;4956829;29;20529;-76
2022/05/24 01:42:00;;;;;;;25.65;13.82;;;;;;;;;;4957047;29;20090;-76
2022/05/24 01:44:30;;;;;;;30.10;12.57;;;;;;;;;;4957242;29;20435;-76
2022/05/24 01:46:57;;;;;;;24.27;11.07;;;;;;;;;;4956863;29;20028;-76
2022/05/24 01:49:27;;;;;;;23.80;10.70;;;;;;;;;;4956968;29;20110;-76
2022/05/24 01:51:56;;;;;;;18.95;9.93;;;;;;;;;;4956770;29;20471;-76
2022/05/24 01:54:22;;;;;;;22.10;10.00;;;;;;;;;;4969637;28;20031;-76
2022/05/24 01:56:51;;;;;;;20.92;9.52;;;;;;;;;;4976661;28;20472;-76
2022/05/24 01:59:18;;;;;;;21.75;9.15;;;;;;;;;;4958907;28;20042;-76
2022/05/24 02:01:47;;;;;;;26.58;9.35;;;;;;;;;;4976198;28;20429;-76
2022/05/24 02:04:13;;;;;;;20.77;10.27;;;;;;;;;;4976026;28;20023;-76
2022/05/24 02:06:39;;;;;;;25.00;9.15;;;;;;;;;;4976035;28;20030;-76
2022/05/24 02:09:07;;;;;;;24.30;9.43;;;;;;;;;;4975710;28;20027;-77
2022/05/24 02:11:34;;;;;;;25.02;9.05;;;;;;;;;;4975758;28;20429;-78
2022/05/24 02:14:07;;;;;;;20.08;9.48;;;;;;;;;;4975623;28;20480;-76
2022/05/24 02:16:33;;;;;;;17.10;8.77;;;;;;;;;;4975884;28;20453;-76
2022/05/24 02:19:00;;;;;;;19.38;9.15;;;;;;;;;;4975496;28;20385;-76
2022/05/24 02:21:26;;;;;;;19.65;10.98;;;;;;;;;;4975597;28;20033;-77
2022/05/24 02:23:52;;;;;;;25.45;11.48;;;;;;;;;;4975751;28;20031;-77
2022/05/24 02:26:19;;;;;;;27.33;11.75;;;;;;;;;;4975844;28;20085;-77
2022/05/24 02:28:45;;;;;;;27.75;12.63;;;;;;;;;;4975604;28;20023;-76
2022/05/24 02:31:17;;;;;;;29.45;13.75;;;;;;;;;;4975815;28;20106;-77
2022/05/24 02:33:43;;;;;;;30.60;12.48;;;;;;;;;;4975398;28;20038;-76
2022/05/24 02:36:09;;;;;;;26.83;13.85;;;;;;;;;;4975567;28;20369;-76
2022/05/24 02:38:35;;;;;;;29.98;13.75;;;;;;;;;;4975528;28;20385;-77
2022/05/24 02:43:47;;;;;;;31.75;14.00;;;;;;;;;;4975356;28;20699;-76
2022/05/24 02:46:13;;;;;;;33.53;13.45;;;;;;;;;;4975106;28;20077;-76
2022/05/24 02:48:39;;;;;;;30.60;13.85;;;;;;;;;;4974756;28;20450;-77
2022/05/24 02:51:11;;;;;;;31.70;14.05;;;;;;;;;;4974391;28;20043;-76
2022/05/24 02:53:37;;;;;;;;;;;;;;;;;;4975303;28;20031;-76
2022/05/24 02:56:04;;;;;;;33.75;13.25;;;;;;;;;;4975362;28;19906;-76
2022/05/24 02:58:30;;;;;;;25.08;12.77;;;;;;;;;;4975303;28;20126;-76
2022/05/24 03:00:56;;;;;;;27.77;12.18;;;;;;;;;;4975137;28;20034;-76
2022/05/24 03:03:22;;;;;;;25.30;11.73;;;;;;;;;;4975171;28;20027;-77
2022/05/24 03:05:48;;;;;;;23.25;12.10;;;;;;;;;;4975056;28;20417;-76
2022/05/24 03:11:09;;;;;;;24.25;11.82;;;;;;;;;;5069861;28;20946;-77
2022/05/24 03:16:20;;;;;;;23.90;10.23;;;;;;;;;;5070299;28;20036;-77
2022/05/24 03:18:46;;;;;;;23.38;12.32;;;;;;;;;;5070027;28;20021;-78
2022/05/24 03:21:12;;;;;;;24.65;10.38;;;;;;;;;;5056551;28;20014;-78
2022/05/24 03:23:38;;;;;;;17.30;9.85;;;;;;;;;;5049939;28;20096;-77
2022/05/24 03:26:05;;;;;;;20.60;9.85;;;;;;;;;;5049800;28;20432;-78
2022/05/24 03:28:31;;;;;;;23.05;10.27;;;;;;;;;;5049880;28;20104;-77
2022/05/24 03:30:57;;;;;;;20.13;9.85;;;;;;;;;;5049757;28;20025;-77
2022/05/24 03:33:24;;;;;;;22.20;9.25;;;;;;;;;;5049837;28;20029;-77
2022/05/24 03:35:50;;;;;;;28.20;10.00;;;;;;;;;;5049741;28;20022;-77
2022/05/24 03:38:16;;;;;;;25.95;9.65;;;;;;;;;;5049989;28;20075;-77
2022/05/24 03:40:42;;;;;;;20.73;9.93;;;;;;;;;;5049799;28;20033;-77
2022/05/24 03:43:15;;;;;;;20.52;9.30;;;;;;;;;;5049911;28;20086;-77
2022/05/24 03:45:41;;;;;;;18.33;8.40;;;;;;;;;;5049633;28;20420;-78
2022/05/24 03:48:07;;;;;;;18.50;9.10;;;;;;;;;;5049749;28;20126;-77
2022/05/24 03:50:33;;;;;;;19.13;8.88;;;;;;;;;;5049589;28;20029;-77
2022/05/24 03:53:00;;;;;;;15.68;8.73;;;;;;;;;;5051248;28;20034;-77
2022/05/24 03:55:26;;;;;;;17.58;8.25;;;;;;;;;;5069213;28;20024;-77
2022/05/24 03:58:01;;;;;;;15.15;7.93;;;;;;;;;;5069277;28;20021;-77
2022/05/24 04:00:29;;;;;;;19.90;7.90;;;;;;;;;;5069081;28;20138;-77
2022/05/24 04:02:56;;;;;;;15.25;8.48;;;;;;;;;;5069198;28;20673;-77
2022/05/24 04:05:22;;;;;;;18.90;7.78;;;;;;;;;;5068834;28;20025;-76
2022/05/24 04:07:48;;;;;;;20.33;8.75;;;;;;;;;;5068863;28;20052;-77
2022/05/24 04:10:14;;;;;;;21.95;8.80;;;;;;;;;;5068559;28;20048;-77
2022/05/24 04:12:41;;;;;;;19.30;7.85;;;;;;;;;;5068866;28;20020;-77
2022/05/24 04:15:07;;;;;;;15.27;7.93;;;;;;;;;;5068737;28;20028;-77
2022/05/24 04:17:33;;;;;;;19.17;7.60;;;;;;;;;;5068825;28;20052;-78
2022/05/24 04:19:59;;;;;;;18.33;7.35;;;;;;;;;;5064236;28;20056;-77
2022/05/24 04:22:25;;;;;;;19.88;7.47;;;;;;;;;;5035731;28;20025;-79
2022/05/24 04:24:51;;;;;;;17.58;7.53;;;;;;;;;;5035417;28;20380;-76
2022/05/24 04:27:17;;;;;;;19.60;7.28;;;;;;;;;;5035361;28;20045;-77
2022/05/24 04:29:43;;;;;;;18.77;6.75;;;;;;;;;;5034076;28;20353;-77
2022/05/24 04:32:10;;;;;;;21.27;7.63;;;;;;;;;;5035635;28;20079;-77
2022/05/24 04:34:37;;;;;;;20.45;7.63;;;;;;;;;;5035521;28;20083;-77
2022/05/24 04:37:05;;;;;;;13.63;6.90;;;;;;;;;;5035239;28;20017;-83
2022/05/24 04:39:32;;;;;;;16.45;6.85;;;;;;;;;;5035014;28;20025;-76
2022/05/24 04:44:43;;;;;;;19.45;7.75;;;;;;;;;;5035017;28;20040;-77
2022/05/24 04:47:10;;;;;;;21.40;7.03;;;;;;;;;;5035135;28;20025;-76
2022/05/24 04:49:37;;;;;;;18.65;7.05;;;;;;;;;;5034759;28;20021;-76
2022/05/24 04:52:04;;;;;;;14.02;7.07;;;;;;;;;;5034821;28;20030;-76
2022/05/24 04:54:30;;;;;;;18.10;7.43;;;;;;;;;;5034998;28;20112;-77
2022/05/24 04:56:56;;;;;;;16.30;7.50;;;;;;;;;;5034559;28;20053;-77
2022/05/24 04:59:22;;;;;;;16.20;8.05;;;;;;;;;;5034983;28;20087;-77
2022/05/24 05:01:51;;;;;;;14.68;6.72;;;;;;;;;;5034836;28;20498;-77
2022/05/24 05:04:17;;;;;;;17.15;7.47;;;;;;;;;;5034660;28;20040;-77
2022/05/24 05:06:44;;;;;;;20.10;8.93;;;;;;;;;;5034694;28;20025;-77
2022/05/24 05:09:11;;;;;;;15.20;7.85;;;;;;;;;;5034476;28;20129;-76
2022/05/24 05:11:37;;;;;;;18.30;7.63;;;;;;;;;;5034600;28;20499;-76
2022/05/24 05:14:03;;;;;;;21.92;7.78;;;;;;;;;;5034526;28;20079;-76
2022/05/24 05:16:29;;;;;;;17.17;7.70;;;;;;;;;;5034240;28;20017;-77
2022/05/24 05:18:55;;;;;;;15.18;9.18;;;;;;;;;;5034258;28;20484;-77
2022/05/24 05:21:21;;;;;;;14.27;8.27;;;;;;;;;;5049061;28;20021;-77
2022/05/24 05:23:47;;;;;;;23.60;9.00;;;;;;;;;;5054125;28;20017;-76
2022/05/24 05:26:16;;;;;;;17.63;8.98;;;;;;;;;;5054013;28;20487;-77
2022/05/24 05:28:42;;;;;;;21.67;8.82;;;;;;;;;;5054088;28;20056;-77
2022/05/24 05:31:22;;;;;;;21.55;9.20;;;;;;;;;;5054226;28;20067;-80
2022/05/24 05:33:49;;;;;;;22.60;8.98;;;;;;;;;;5053955;28;20104;-79
2022/05/24 05:36:16;;;;;;;17.27;8.75;;;;;;;;;;5054708;28;20025;-80
2022/05/24 05:38:46;;;;;;;19.98;8.77;;;;;;;;;;5054390;28;20343;-80
2022/05/24 05:41:12;;;;;;;18.75;9.35;;;;;;;;;;5054585;28;20017;-81
2022/05/24 05:43:38;;;;;;;20.90;9.25;;;;;;;;;;5054369;28;20061;-81
2022/05/24 05:46:04;;;;;;;19.73;8.82;;;;;;;;;;5054737;28;20030;-81
2022/05/24 05:48:30;;;;;;;16.10;8.07;;;;;;;;;;5054244;28;20016;-80
2022/05/24 05:50:57;;;;;;;18.92;8.18;;;;;;;;;;5054156;28;20025;-80
2022/05/24 05:53:23;;;;;;;15.30;8.18;;;;;;;;;;5054300;28;20025;-80
2022/05/24 05:55:49;;;;;;;19.33;7.57;;;;;;;;;;5054021;28;20029;-80
2022/05/24 05:58:15;;;;;;;14.77;7.10;;;;;;;;;;5053943;28;20082;-80
2022/05/24 06:00:42;;;;;;;11.50;6.90;;;;;;;;;;5053860;28;20035;-81
2022/05/24 06:03:08;;;;;;;14.93;6.63;;;;;;;;;;5052659;28;20025;-81
2022/05/24 06:05:35;;;;;;;14.68;6.97;;;;;;;;;;5052396;28;20021;-81
2022/05/24 06:08:01;;;;;;;14.35;6.10;;;;;;;;;;5052451;28;20033;-80
2022/05/24 06:10:28;;;;;;;12.60;6.43;;;;;;;;;;5051963;28;20049;-80
2022/05/24 06:12:57;;;;;;;12.85;6.50;;;;;;;;;;5052255;28;20036;-81
2022/05/24 06:15:25;;;;;;;9.60;6.00;;;;;;;;;;5052206;28;20013;-81
2022/05/24 06:17:52;;;;;;;15.27;6.22;;;;;;;;;;5052241;28;20471;-82
2022/05/24 06:20:19;;;;;;;14.85;6.97;;;;;;;;;;5051757;28;20029;-77
2022/05/24 06:22:46;;;;;;;13.75;6.47;;;;;;;;;;5051601;28;20028;-78
2022/05/24 06:25:13;;;;;;;15.48;7.72;;;;;;;;;;5050885;28;20024;-79
2022/05/24 06:27:39;;;;;;;14.40;6.32;;;;;;;;;;5051486;28;20021;-79
2022/05/24 06:30:06;;;;;;;14.35;7.30;;;;;;;;;;5051111;28;20029;-78
2022/05/24 06:32:32;;;;;;;16.17;7.00;;;;;;;;;;5051265;28;20032;-82
2022/05/24 06:34:58;;;;;;;16.25;7.10;;;;;;;;;;5051485;28;20021;-83
2022/05/24 06:37:24;;;;;;;14.10;6.45;;;;;;;;;;5051924;28;20027;-80
2022/05/24 06:39:50;;;;;;;15.50;6.03;;;;;;;;;;5052652;28;20057;-79
2022/05/24 06:42:16;;;;;;;13.10;6.40;;;;;;;;;;5052319;28;20029;-80
2022/05/24 06:44:42;;;;;;;11.35;5.95;;;;;;;;;;5052477;28;20096;-81
2022/05/24 06:47:09;;;;;;;11.85;6.35;;;;;;;;;;5055999;28;20033;-81
2022/05/24 06:49:36;;;;;;;15.77;7.18;;;;;;;;;;5055856;28;20135;-81
2022/05/24 06:52:02;;;;;;;10.68;6.88;;;;;;;;;;5055706;28;20104;-81
2022/05/24 06:54:29;;;;;;;15.48;7.07;;;;;;;;;;5041046;28;20022;-81
2022/05/24 06:56:55;;;;;;;11.73;8.00;;;;;;;;;;5036692;28;20436;-81
2022/05/24 07:02:25;;;;;;;14.10;8.23;;;;;;;;;;5052201;28;20537;-78
2022/05/24 07:04:55;;;;;;;13.35;7.18;;;;;;;;;;5051665;28;20029;-79
2022/05/24 07:07:21;;;;;;;13.07;7.85;;;;;;;;;;5051315;28;20479;-79
2022/05/24 07:09:47;;;;;;;12.93;7.47;;;;;;;;;;5052647;28;20060;-76
2022/05/24 07:12:13;;;;;;;13.98;7.30;;;;;;;;;;5051447;28;20021;-77
2022/05/24 07:14:39;;;;;;;15.15;7.68;;;;;;;;;;5051220;28;20021;-76
2022/05/24 07:17:05;;;;;;;13.75;6.88;;;;;;;;;;5051712;28;20029;-76
2022/05/24 07:19:32;;;;;;;10.95;6.70;;;;;;;;;;5051883;28;20079;-76
2022/05/24 07:21:58;;;;;;;13.88;6.90;;;;;;;;;;5032020;28;20025;-76
2022/05/24 07:24:24;;;;;;;9.63;5.85;;;;;;;;;;5031917;28;20025;-76
2022/05/24 07:26:50;;;;;;;13.68;6.10;;;;;;;;;;5031709;28;20108;-77
2022/05/24 07:29:16;;;;;;;15.45;5.32;;;;;;;;;;5031477;28;20032;-76
2022/05/24 07:31:42;;;;;;;13.48;5.28;;;;;;;;;;5031645;28;20022;-76
2022/05/24 07:34:08;;;;;;;8.00;4.78;;;;;;;;;;5031690;28;20075;-77
2022/05/24 07:36:34;;;;;;;10.70;4.82;;;;;;;;;;5031723;28;20423;-77
2022/05/24 07:39:00;;;;;;;10.60;4.50;;;;;;;;;;5031704;28;20059;-76
2022/05/24 07:46:56;;;;;;;5.82;3.60;;;;;;;;;;5034929;28;20060;-76
2022/05/24 07:49:22;;;;;;;9.32;4.00;;;;;;;;;;5050996;28;20028;-76
2022/05/24 07:51:49;;;;;;;8.40;4.53;;;;;;;;;;5050992;28;20014;-76
2022/05/24 07:54:15;;;;;;;7.85;4.13;;;;;;;;;;5039081;28;20160;-76
2022/05/24 07:56:44;;;;;;;10.13;3.60;;;;;;;;;;5033070;28;20430;-76
2022/05/24 07:59:10;;;;;;;8.00;3.45;;;;;;;;;;5044485;28;20021;-75
2022/05/24 08:01:36;;;;;;;7.40;3.30;;;;;;;;;;5054741;28;20017;-76
2022/05/24 08:04:03;;;;;;;8.50;3.50;;;;;;;;;;5055054;28;20048;-76
2022/05/24 08:06:29;;;;;;;5.70;3.58;;;;;;;;;;5054994;28;20037;-77
2022/05/24 08:08:55;;;;;;;10.15;4.28;;;;;;;;;;5055053;28;20498;-75
2022/05/24 08:11:21;;;;;;;8.50;3.30;;;;;;;;;;5054898;28;20104;-76
2022/05/24 08:13:47;;;;;;;9.73;3.40;;;;;;;;;;5054912;28;20029;-77
2022/05/24 08:16:13;;;;;;;6.07;3.08;;;;;;;;;;5055058;28;20025;-75
2022/05/24 08:18:39;;;;;;;7.32;2.65;;;;;;;;;;5054496;28;20706;-75
2022/05/24 08:21:05;;;;;;;7.85;2.83;;;;;;;;;;5052928;28;20494;-77
2022/05/24 08:23:32;;;;;;;8.60;2.80;;;;;;;;;;5055361;28;20391;-78
2022/05/24 08:25:58;;;;;;;5.97;2.60;;;;;;;;;;5054259;28;20033;-77
2022/05/24 08:28:24;;;;;;;6.63;2.67;;;;;;;;;;5052860;28;20131;-76
2022/05/24 08:30:53;;;;;;;5.60;2.63;;;;;;;;;;5054286;28;20082;-77
2022/05/24 08:33:20;;;;;;;5.28;2.13;;;;;;;;;;5054699;28;20021;-79
2022/05/24 08:35:47;;;;;;;4.53;1.63;;;;;;;;;;5054382;28;20418;-77
2022/05/24 08:38:14;;;;;;;9.85;1.73;;;;;;;;;;5054149;28;20021;-76
2022/05/24 08:40:40;;;;;;;3.40;1.40;;;;;;;;;;5054088;28;20023;-79
2022/05/24 08:43:20;;;;;;;7.05;1.95;;;;;;;;;;5054077;28;20643;-77
2022/05/24 08:48:39;;;;;;;2.00;1.75;;;;;;;;;;5051462;28;20047;-76
2022/05/24 08:51:08;;;;;;;3.80;1.48;;;;;;;;;;5053795;28;20036;-76
2022/05/24 08:53:39;;;;;;;3.80;1.58;;;;;;;;;;5053256;28;20459;-76
2022/05/24 08:56:06;;;;;;;2.60;1.27;;;;;;;;;;5053528;28;20044;-76
2022/05/24 08:58:45;;;;;;;5.97;1.80;;;;;;;;;;5053634;28;20503;-76
2022/05/24 09:01:15;;;;;;;4.45;1.45;;;;;;;;;;5052037;28;20327;-76
2022/05/24 09:03:41;;;;;;;8.07;1.70;;;;;;;;;;5053309;28;20051;-76
2022/05/24 09:06:30;;;;;;;4.57;1.20;;;;;;;;;;5053716;28;20468;-76
2022/05/24 09:09:07;;;;;;;4.13;1.30;;;;;;;;;;5031200;28;20099;-76
2022/05/24 09:11:41;;;;;;;6.95;2.17;;;;;;;;;;5031334;28;20045;-75
2022/05/24 09:14:28;;;;;;;4.05;1.60;;;;;;;;;;5031504;28;20030;-76
2022/05/24 09:17:00;;;;;;;5.25;1.60;;;;;;;;;;5031323;28;20025;-75
2022/05/24 09:19:28;;;;;;;6.43;2.00;;;;;;;;;;5031180;28;20045;-76
2022/05/24 09:21:54;;;;;;;7.78;1.02;;;;;;;;;;5031047;28;20326;-77
2022/05/24 09:24:23;;;;;;;2.22;0.32;;;;;;;;;;5031251;28;20044;-75
2022/05/24 09:27:07;;;;;;;0.65;0.20;;;;;;;;;;5031001;28;20042;-75
2022/05/24 09:29:34;;;;;;;0.40;0.30;;;;;;;;;;5031033;28;20033;-75
2022/05/24 09:32:03;;;;;;;1.90;0.65;;;;;;;;;;5031125;28;20133;-76
2022/05/24 09:34:30;;;;;;;4.68;1.20;;;;;;;;;;5030951;28;20037;-76
2022/05/24 09:36:57;;;;;;;2.78;1.38;;;;;;;;;;5030938;28;20040;-76
2022/05/24 09:39:26;;;;;;;10.43;2.42;;;;;;;;;;5030901;28;20076;-76
2022/05/24 09:42:00;;;;;;;5.18;2.28;;;;;;;;;;5030855;28;20033;-76
2022/05/24 09:44:27;;;;;;;4.47;2.20;;;;;;;;;;5030895;28;20132;-75
2022/05/24 09:46:54;;;;;;;4.00;2.65;;;;;;;;;;5050848;28;20037;-76
2022/05/24 09:49:33;;;;;;;4.72;2.70;;;;;;;;;;5052904;28;20025;-76
2022/05/24 09:52:08;;;;;;;3.92;2.20;;;;;;;;;;5052911;28;20056;-76
2022/05/24 09:54:34;;;;;;;3.25;2.10;;;;;;;;;;5038078;28;20025;-76
2022/05/24 09:57:03;;;;;;;3.83;2.17;;;;;;;;;;5032848;28;20435;-76
2022/05/24 09:59:29;;;;;;;4.78;2.40;;;;;;;;;;5032865;28;20349;-76
2022/05/24 10:01:56;;;;;;;5.78;2.22;;;;;;;;;;5032943;28;20022;-76
2022/05/24 10:04:48;;;;;;;4.82;1.27;;;;;;;;;;5049841;28;20029;-76
2022/05/24 10:07:25;;;;;;;6.93;0.90;;;;;;;;;;5051513;28;20156;-74
2022/05/24 10:09:55;;;;;;;1.05;0.70;;;;;;;;;;5052322;28;20049;-76
2022/05/24 10:12:27;;;;;;;2.15;0.77;;;;;;;;;;5052461;28;20091;-76
2022/05/24 10:15:03;;;;;;;5.15;0.77;;;;;;;;;;5052536;28;20405;-76
2022/05/24 10:17:55;;;;;;;1.88;0.90;;;;;;;;;;5052683;28;20029;-76
2022/05/24 10:20:25;;;;;;;1.45;1.20;;;;;;;;;;5048220;28;20037;-76
2022/05/24 10:22:57;;;;;;;1.45;0.90;;;;;;;;;;5052331;28;20033;-76
2022/05/24 10:25:35;;;;;;;1.05;0.90;;;;;;;;;;5052300;28;20468;-75
2022/05/24 10:28:01;;;;;;;3.85;0.80;;;;;;;;;;5052372;28;20093;-76
2022/05/24 10:30:44;;;;;;;2.53;1.35;;;;;;;;;;5052046;28;20029;-76
2022/05/24 10:38:48;;;;;;;1.95;1.35;;;;;;;;;;5052135;28;20078;-75
2022/05/24 10:41:38;;;;;;;2.05;1.40;;;;;;;;;;5052041;28;20480;-75
2022/05/24 10:44:07;;;;;;;2.50;1.70;;;;;;;;;;5029736;28;20240;-75
2022/05/24 10:46:39;;;;;;;3.05;0.65;;;;;;;;;;5029776;28;20139;-75
2022/05/24 10:49:05;;;;;;;4.25;0.70;;;;;;;;;;5029592;28;20160;-75
2022/05/24 10:51:40;;;;;;;3.72;0.70;;;;;;;;;;5029669;28;20025;-75
2022/05/24 10:54:12;;;;;;;2.05;0.65;;;;;;;;;;5029405;28;20026;-75
2022/05/24 10:56:47;;;;;;;1.73;0.60;;;;;;;;;;5029413;28;20224;-75
2022/05/24 10:59:35;;;;;;;1.98;0.47;;;;;;;;;;5029730;28;20057;-75
2022/05/24 11:02:10;;;;;;;1.45;0.60;;;;;;;;;;4990233;28;20073;-75
2022/05/24 11:04:55;;;;;;;1.75;0.50;;;;;;;;;;4990179;28;20113;-75
2022/05/24 11:07:21;;;;;;;5.60;0.50;;;;;;;;;;4990104;28;20096;-75
2022/05/24 11:09:54;;;;;;;1.30;0.60;;;;;;;;;;4989751;28;20555;-75
2022/05/24 11:12:23;;;;;;;2.13;0.80;;;;;;;;;;4990101;28;20096;-75
2022/05/24 11:15:13;;;;;;;0.90;0.60;;;;;;;;;;4990003;28;20514;-75
2022/05/24 11:17:39;;;;;;;3.17;0.73;;;;;;;;;;4990047;28;20065;-75
2022/05/24 11:20:05;;;;;;;2.35;0.75;;;;;;;;;;4993482;28;20099;-75
2022/05/24 11:22:39;;;;;;;3.00;0.98;;;;;;;;;;5029475;28;20037;-75
2022/05/24 11:25:21;;;;;;;1.35;0.98;;;;;;;;;;5029239;28;20026;-75
2022/05/24 11:27:53;;;;;;;4.82;1.02;;;;;;;;;;5029408;28;20555;-76
2022/05/24 11:30:32;;;;;;;1.80;1.17;;;;;;;;;;5029289;28;20102;-75
2022/05/24 11:33:05;;;;;;;1.60;1.10;;;;;;;;;;5033282;28;20041;-75
2022/05/24 11:35:36;;;;;;;3.80;1.15;;;;;;;;;;5033214;28;20022;-75
2022/05/24 11:38:17;;;;;;;1.63;1.00;;;;;;;;;;5035345;28;20059;-75
2022/05/24 11:40:43;;;;;;;4.30;1.20;;;;;;;;;;5055348;28;20131;-76
2022/05/24 11:43:12;;;;;;;1.77;0.90;;;;;;;;;;5055349;28;20037;-75
2022/05/24 11:45:38;;;;;;;4.60;1.05;;;;;;;;;;5055311;28;20033;-75
2022/05/24 11:48:07;;;;;;;3.70;1.30;;;;;;;;;;5055399;28;20028;-75
2022/05/24 11:50:36;;;;;;;5.78;1.15;;;;;;;;;;5055061;28;20036;-75
2022/05/24 11:53:09;;;;;;;2.72;1.25;;;;;;;;;;5052939;28;20040;-75
2022/05/24 11:55:35;;;;;;;;;;;;;;;;;;5035497;28;20018;-75
2022/05/24 11:58:20;;;;;;;3.33;1.17;;;;;;;;;;5035316;28;20050;-75
2022/05/24 12:00:57;;;;;;;4.30;1.30;;;;;;;;;;5035186;28;20526;-75
2022/05/24 12:09:27;;;;;;;3.17;1.40;;;;;;;;;;5055060;28;20059;-75
2022/05/24 12:12:12;;;;;;;2.25;1.42;;;;;;;;;;5032453;28;20112;-75
2022/05/24 12:14:39;;;;;;;3.05;1.38;;;;;;;;;;5032481;28;20470;-75
2022/05/24 12:17:05;;;;;;;7.78;1.50;;;;;;;;;;5032517;28;20053;-75
2022/05/24 12:19:38;;;;;;;5.80;1.30;;;;;;;;;;5032335;28;20028;-75
2022/05/24 12:22:09;;;;;;;5.40;1.45;;;;;;;;;;5032349;28;20470;-75
2022/05/24 12:24:41;;;;;;;3.40;1.35;;;;;;;;;;5032310;28;20033;-75
2022/05/24 12:27:07;;;;;;;2.60;1.35;;;;;;;;;;5032088;28;20026;-75
2022/05/24 12:29:34;;;;;;;4.60;1.10;;;;;;;;;;5032181;28;20033;-75
2022/05/24 12:32:04;;;;;;;4.45;1.58;;;;;;;;;;5032097;28;20033;-75
2022/05/24 12:34:32;;;;;;;2.47;1.00;;;;;;;;;;5032020;28;20083;-75
2022/05/24 12:36:59;;;;;;;5.13;1.63;;;;;;;;;;5032006;28;20593;-76
2022/05/24 12:39:26;;;;;;;2.05;1.30;;;;;;;;;;5031969;28;20049;-75
2022/05/24 12:42:03;;;;;;;3.83;1.50;;;;;;;;;;5031679;28;20044;-76
2022/05/24 12:44:31;;;;;;;2.40;1.20;;;;;;;;;;5032477;28;20025;-76
2022/05/24 12:46:59;;;;;;;2.47;1.10;;;;;;;;;;5033016;28;20034;-75
2022/05/24 12:49:29;;;;;;;4.20;1.40;;;;;;;;;;5034637;28;20017;-76
2022/05/24 12:52:12;;;;;;;4.05;1.38;;;;;;;;;;5034712;28;20029;-75
2022/05/24 12:54:43;;;;;;;3.13;1.42;;;;;;;;;;5034445;28;20018;-75
2022/05/24 12:57:15;;;;;;;2.65;1.15;;;;;;;;;;5033902;28;20029;-75
2022/05/24 12:59:42;;;;;;;3.17;1.00;;;;;;;;;;5033899;28;20502;-75
2022/05/24 13:02:31;;;;;;;5.97;1.10;;;;;;;;;;5034013;28;20025;-75
2022/05/24 13:04:59;;;;;;;2.85;1.00;;;;;;;;;;5033894;28;20025;-75
2022/05/24 13:07:43;;;;;;;2.22;0.93;;;;;;;;;;5033831;28;20101;-75
2022/05/24 13:10:24;;;;;;;4.22;0.88;;;;;;;;;;5033436;28;20049;-75
2022/05/24 13:12:58;;;;;;;2.15;0.80;;;;;;;;;;5033770;28;20024;-75
2022/05/24 13:15:30;;;;;;;1.38;0.80;;;;;;;;;;5033628;28;20192;-75
2022/05/24 13:18:02;;;;;;;3.05;0.70;;;;;;;;;;5033597;28;20076;-75
2022/05/24 13:20:36;;;;;;;4.15;1.63;;;;;;;;;;5040379;28;20048;-75
2022/05/24 13:23:05;;;;;;;2.78;1.00;;;;;;;;;;5053463;28;20037;-75
2022/05/24 13:26:04;;;;;;;8.45;1.33;;;;;;;;;;5053399;28;20032;-76
2022/05/24 13:28:51;;;;;;;3.25;1.10;;;;;;;;;;5030979;28;20121;-76
2022/05/24 13:34:17;;;;;;;2.55;0.95;;;;;;;;;;5031283;28;20036;-75
2022/05/24 13:36:53;;;;;;;2.95;0.80;;;;;;;;;;5030814;28;20480;-75
2022/05/24 13:39:19;;;;;;;3.47;1.27;;;;;;;;;;5030860;28;20045;-76
2022/05/24 13:42:05;;;;;;;1.77;0.90;;;;;;;;;;5014334;28;20089;-77
2022/05/24 13:44:36;;;;;;;4.07;1.00;;;;;;;;;;5030892;28;20037;-76
2022/05/24 13:47:05;;;;;;;3.60;1.60;;;;;;;;;;5030838;28;20037;-76
2022/05/24 13:49:31;;;;;;;3.92;0.90;;;;;;;;;;5030724;28;20029;-75
2022/05/24 13:52:15;;;;;;;2.05;0.60;;;;;;;;;;5030573;28;20029;-75
2022/05/24 13:54:42;;;;;;;2.38;0.85;;;;;;;;;;5029637;28;20026;-75
2022/05/24 13:57:19;;;;;;;2.92;0.90;;;;;;;;;;5030529;28;20037;-75
2022/05/24 13:59:55;;;;;;;5.00;1.08;;;;;;;;;;5030622;28;20034;-76
2022/05/24 14:02:22;;;;;;;3.45;0.68;;;;;;;;;;5030465;28;20033;-75
2022/05/24 14:04:49;;;;;;;1.05;0.50;;;;;;;;;;5048285;28;20036;-75
2022/05/24 14:07:15;;;;;;;2.03;0.43;;;;;;;;;;5052550;28;20062;-75
2022/05/24 14:09:41;;;;;;;3.75;0.60;;;;;;;;;;5052344;28;20418;-75
2022/05/24 14:12:08;;;;;;;3.20;0.40;;;;;;;;;;5052417;28;20083;-75
2022/05/24 14:14:39;;;;;;;0.43;0.35;;;;;;;;;;5052456;28;20021;-75
2022/05/24 14:17:06;;;;;;;0.50;0.27;;;;;;;;;;5052504;28;20017;-75
2022/05/24 14:19:33;;;;;;;1.73;0.40;;;;;;;;;;5052399;28;20032;-75
2022/05/24 14:21:59;;;;;;;0.63;0.25;;;;;;;;;;5052120;28;20040;-75
2022/05/24 14:24:27;;;;;;;1.52;0.40;;;;;;;;;;5052324;28;20167;-75
2022/05/24 14:26:56;;;;;;;2.20;0.32;;;;;;;;;;5052224;28;20086;-75
2022/05/24 14:29:22;;;;;;;1.25;0.50;;;;;;;;;;5052133;28;20040;-75
2022/05/24 14:31:49;;;;;;;3.28;0.50;;;;;;;;;;5052322;28;20098;-74
2022/05/24 14:34:15;;;;;;;0.95;0.40;;;;;;;;;;5052250;28;20043;-75
2022/05/24 14:36:42;;;;;;;3.10;0.73;;;;;;;;;;5052158;28;20061;-75
2022/05/24 14:39:08;;;;;;;2.28;0.60;;;;;;;;;;5051998;28;20074;-75
2022/05/24 14:41:35;;;;;;;1.70;0.40;;;;;;;;;;5052123;28;20112;-74
2022/05/24 14:44:04;;;;;;;0.98;0.55;;;;;;;;;;5052010;28;20025;-75
2022/05/24 14:46:31;;;;;;;1.73;0.50;;;;;;;;;;5052123;28;20021;-75
2022/05/24 14:48:57;;;;;;;3.33;0.63;;;;;;;;;;5052054;28;20020;-75
2022/05/24 14:51:33;;;;;;;1.35;0.40;;;;;;;;;;5051744;28;20112;-75
2022/05/24 14:54:00;;;;;;;1.92;0.60;;;;;;;;;;5051776;28;20043;-75
2022/05/24 14:56:26;;;;;;;4.35;0.50;;;;;;;;;;5051811;28;20515;-75
2022/05/24 14:58:54;;;;;;;1.48;0.43;;;;;;;;;;5051854;28;20107;-75
2022/05/24 15:01:20;;;;;;;1.15;0.60;;;;;;;;;;5051884;28;20031;-75
2022/05/24 15:03:46;;;;;;;2.25;0.43;;;;;;;;;;5051523;28;20032;-76
2022/05/24 15:06:12;;;;;;;1.80;0.35;;;;;;;;;;5051540;28;20025;-76
2022/05/24 15:16:53;;;;;;;0.80;0.40;;;;;;;;;;5051644;28;20098;-74
2022/05/24 15:19:20;;;;;;;2.10;0.50;;;;;;;;;;5051542;28;20412;-74
2022/05/24 15:21:48;;;;;;;1.08;0.50;;;;;;;;;;5051301;28;20025;-73
2022/05/24 15:24:17;;;;;;;1.20;0.50;;;;;;;;;;5051540;28;20021;-76
2022/05/24 15:26:45;;;;;;;1.23;0.63;;;;;;;;;;5051495;28;20025;-76
2022/05/24 15:29:11;;;;;;;3.92;0.68;;;;;;;;;;5051502;28;20032;-76
2022/05/24 15:31:37;;;;;;;2.08;0.60;;;;;;;;;;5051681;28;20021;-75
2022/05/24 15:34:04;;;;;;;2.17;0.70;;;;;;;;;;5051483;28;20434;-75
2022/05/24 15:36:30;;;;;;;4.85;0.90;;;;;;;;;;5051456;28;20546;-75